aviador You're here:

KPOV Decoded Metar

in
Report Time2018-07-22 14:17:00
UTC Time2018-07-22 14:31:02
Flight Rules mvfr MVFR
WindCalm
Visibility9999 m
Phenomena:N/A
Clouds:Overcast 017 Hf
Expected CloudBase > 2,000 ft AGL from Temp-Dew spread
Ceiling1,700 ft
Temp20°C
Dew Point15°C (73% RH)
QNH1008 hPa
Raw Report
KPOV 221417Z AUTO 00000KT 10SM OVC017 20/15 A2977 RMK AO2
T01990148 PWINO=

Extra information for KPOV:More info

Social comments